createdAt,value
2023-01-20T00:01:09.624Z,100464.56
2023-01-20T00:03:37.910Z,100464.44
2023-01-20T00:06:06.356Z,100477.47
2023-01-20T00:08:34.528Z,100446.59
2023-01-20T00:11:05.637Z,100487.09
2023-01-20T00:13:35.160Z,100486.41
2023-01-20T00:16:04.096Z,100485.19
2023-01-20T00:18:32.553Z,100480.41
2023-01-20T00:21:03.786Z,100477.19
2023-01-20T00:23:31.980Z,100481.84
2023-01-20T00:26:00.127Z,100481.75
2023-01-20T00:28:28.185Z,100487.63
2023-01-20T00:30:57.548Z,100490.94
2023-01-20T00:33:25.571Z,100484.09
2023-01-20T00:35:53.537Z,100504.75
2023-01-20T00:38:21.688Z,100492.00
2023-01-20T00:40:55.080Z,100496.03
2023-01-20T00:43:23.197Z,100495.00
2023-01-20T00:45:51.241Z,100494.47
2023-01-20T00:48:20.668Z,100501.16
2023-01-20T00:50:48.650Z,100502.31
2023-01-20T00:53:16.777Z,100501.78
2023-01-20T00:55:45.040Z,100479.28
2023-01-20T00:58:13.005Z,100508.91
2023-01-20T01:00:41.158Z,100519.13
2023-01-20T01:03:10.334Z,100512.44
2023-01-20T01:05:39.719Z,100523.06
2023-01-20T01:08:07.706Z,100522.25
2023-01-20T01:10:35.964Z,100521.75
2023-01-20T01:13:05.414Z,100520.50
2023-01-20T01:15:33.848Z,100528.38
2023-01-20T01:18:02.278Z,100532.03
2023-01-20T01:20:30.464Z,100530.88
2023-01-20T01:22:59.989Z,100533.81
2023-01-20T01:25:27.943Z,100518.38
2023-01-20T01:27:55.951Z,100545.13
2023-01-20T01:30:23.976Z,100549.25
2023-01-20T01:32:52.022Z,100544.22
2023-01-20T01:35:20.149Z,100549.44
2023-01-20T01:37:48.208Z,100551.63
2023-01-20T01:40:18.487Z,100554.66
2023-01-20T01:42:46.502Z,100550.31
2023-01-20T01:45:27.280Z,100556.59
2023-01-20T01:48:09.005Z,100529.50
2023-01-20T01:50:42.765Z,100550.91
2023-01-20T01:53:11.285Z,100549.91
2023-01-20T01:55:44.205Z,100563.72
2023-01-20T01:58:16.574Z,100560.91
2023-01-20T02:00:45.536Z,100557.53
2023-01-20T02:03:14.297Z,100557.28
2023-01-20T02:05:44.681Z,100558.41
2023-01-20T02:08:12.795Z,100563.72
2023-01-20T02:10:42.149Z,100567.75
2023-01-20T02:13:10.320Z,100569.88
2023-01-20T02:15:43.396Z,100571.19
2023-01-20T02:18:27.210Z,100572.34
2023-01-20T02:21:45.539Z,100564.78
2023-01-20T02:25:07.361Z,100572.75
2023-01-20T02:28:00.870Z,100568.72
2023-01-20T02:30:50.345Z,100567.94
2023-01-20T02:33:27.607Z,100573.34
2023-01-20T02:36:01.111Z,100578.69
2023-01-20T02:38:35.688Z,100581.50
2023-01-20T02:41:10.398Z,100579.88
2023-01-20T02:43:46.085Z,100581.28
2023-01-20T02:46:22.238Z,100584.66
2023-01-20T02:48:56.813Z,100591.47
2023-01-20T02:51:30.965Z,100592.16
2023-01-20T02:54:03.324Z,100576.25
2023-01-20T02:56:32.981Z,100584.75
2023-01-20T02:59:05.901Z,100571.84
2023-01-20T03:01:39.025Z,100596.78
2023-01-20T03:04:11.807Z,100600.41
2023-01-20T03:06:45.029Z,100603.50
2023-01-20T03:09:17.552Z,100610.94
2023-01-20T03:11:51.073Z,100603.59
2023-01-20T03:14:19.966Z,100612.59
2023-01-20T03:16:50.414Z,100613.53
2023-01-20T03:19:20.773Z,100627.44
2023-01-20T03:21:49.510Z,100627.22
2023-01-20T03:24:17.732Z,100626.66
2023-01-20T03:26:45.872Z,100624.41
2023-01-20T03:29:16.059Z,100614.91
2023-01-20T03:31:48.188Z,100620.28
2023-01-20T03:34:22.302Z,100620.75
2023-01-20T03:36:51.395Z,100623.91
2023-01-20T03:39:20.118Z,100632.84
2023-01-20T03:41:59.012Z,100643.19
2023-01-20T03:44:39.990Z,100645.31
2023-01-20T03:47:11.931Z,100646.00
2023-01-20T03:49:47.511Z,100637.63
2023-01-20T03:52:23.337Z,100649.22
2023-01-20T03:55:17.227Z,100649.31
2023-01-20T03:57:50.594Z,100651.19
2023-01-20T04:00:21.179Z,100649.00
2023-01-20T04:02:51.124Z,100650.25
2023-01-20T04:05:21.054Z,100646.78
2023-01-20T04:07:51.013Z,100647.88
2023-01-20T04:10:20.044Z,100605.94
2023-01-20T04:12:48.101Z,100653.22
2023-01-20T04:15:17.994Z,100656.31
2023-01-20T04:17:46.214Z,100666.28
2023-01-20T04:20:15.987Z,100657.16
2023-01-20T04:22:51.065Z,100664.94
2023-01-20T04:25:25.530Z,100662.31
2023-01-20T04:27:53.699Z,100662.00
2023-01-20T04:30:21.811Z,100665.09
2023-01-20T04:32:49.884Z,100673.47
2023-01-20T04:35:19.902Z,100674.06
2023-01-20T04:37:49.401Z,100673.81
2023-01-20T04:40:17.757Z,100682.34
2023-01-20T04:42:45.685Z,100691.19
2023-01-20T04:45:16.444Z,100690.34
2023-01-20T04:47:44.724Z,100688.94
2023-01-20T04:50:13.943Z,100692.16
2023-01-20T04:52:42.307Z,100696.34
2023-01-20T04:55:13.156Z,100679.28
2023-01-20T04:57:41.416Z,100690.88
2023-01-20T05:00:10.735Z,100692.13
2023-01-20T05:02:38.745Z,100696.38
2023-01-20T05:05:07.219Z,100702.31
2023-01-20T05:07:35.272Z,100699.16
2023-01-20T05:10:03.394Z,100707.97
2023-01-20T05:12:32.769Z,100706.56
2023-01-20T05:15:00.688Z,100716.13
2023-01-20T05:17:28.726Z,100709.19
2023-01-20T05:19:56.621Z,100711.81
2023-01-20T05:22:24.672Z,100712.56
2023-01-20T05:24:52.660Z,100718.94
2023-01-20T05:27:20.647Z,100715.25
2023-01-20T05:29:50.046Z,100715.94
2023-01-20T05:32:18.023Z,100723.38
2023-01-20T05:34:45.969Z,100719.94
2023-01-20T05:37:13.917Z,100708.88
2023-01-20T05:39:41.887Z,100726.63
2023-01-20T05:42:09.942Z,100727.06
2023-01-20T05:44:37.982Z,100728.06
2023-01-20T05:47:07.379Z,100726.91
2023-01-20T05:49:35.392Z,100740.00
2023-01-20T05:52:03.376Z,100740.19
2023-01-20T05:54:31.381Z,100745.31
2023-01-20T05:56:59.882Z,100750.16
2023-01-20T05:59:27.930Z,100748.59
2023-01-20T06:01:57.960Z,100757.00
2023-01-20T06:04:28.248Z,100754.19
2023-01-20T06:06:56.355Z,100761.31
2023-01-20T06:09:24.422Z,100758.34
2023-01-20T06:11:52.502Z,100765.19
2023-01-20T06:14:20.688Z,100762.78
2023-01-20T06:16:48.651Z,100762.09
2023-01-20T06:19:16.630Z,100773.16
2023-01-20T06:21:46.934Z,100777.97
2023-01-20T06:24:15.331Z,100771.28
2023-01-20T06:26:43.209Z,100786.78
2023-01-20T06:29:11.177Z,100788.19
2023-01-20T06:31:39.142Z,100794.56
2023-01-20T06:34:07.096Z,100797.56
2023-01-20T06:36:35.086Z,100798.56
2023-01-20T06:39:04.921Z,100778.13
2023-01-20T06:41:33.047Z,100810.06
2023-01-20T06:44:01.042Z,100815.00
2023-01-20T06:46:29.083Z,100818.72
2023-01-20T06:49:00.591Z,100825.25
2023-01-20T06:51:30.440Z,100833.50
2023-01-20T06:53:58.853Z,100838.28
2023-01-20T06:56:28.409Z,100838.03
2023-01-20T06:58:56.392Z,100844.03
2023-01-20T07:01:26.797Z,100831.22
2023-01-20T07:03:55.101Z,100848.13
2023-01-20T07:06:28.018Z,100851.53
2023-01-20T07:08:58.769Z,100843.13
2023-01-20T07:11:28.925Z,100853.88
2023-01-20T07:13:56.887Z,100843.69
2023-01-20T07:16:24.977Z,100860.28
2023-01-20T07:18:53.637Z,100868.25
2023-01-20T07:21:24.545Z,100867.81
2023-01-20T07:23:54.096Z,100878.31
2023-01-20T07:26:24.300Z,100874.47
2023-01-20T07:28:53.990Z,100884.00
2023-01-20T07:31:23.831Z,100882.56
2023-01-20T07:33:52.209Z,100844.25
2023-01-20T07:36:20.403Z,100904.03
2023-01-20T07:38:49.666Z,100903.03
2023-01-20T07:41:20.015Z,100905.16
2023-01-20T07:43:50.783Z,100911.56
2023-01-20T07:46:20.650Z,100914.41
2023-01-20T07:48:48.836Z,100918.84
2023-01-20T07:51:17.674Z,100926.63
2023-01-20T07:53:47.679Z,100924.66
2023-01-20T07:56:17.049Z,100929.38
2023-01-20T07:58:45.942Z,100928.09
2023-01-20T08:01:16.510Z,100942.88
2023-01-20T08:03:46.537Z,100937.19
2023-01-20T08:06:16.683Z,100966.03
2023-01-20T08:08:44.871Z,100975.13
2023-01-20T08:11:15.110Z,100974.13
2023-01-20T08:13:43.386Z,100979.25
2023-01-20T08:16:13.289Z,100984.50
2023-01-20T08:18:41.760Z,100983.34
2023-01-20T08:21:19.195Z,100981.09
2023-01-20T08:23:47.172Z,100992.91
2023-01-20T08:26:15.677Z,100993.44
2023-01-20T08:28:43.769Z,100993.44
2023-01-20T08:31:13.917Z,100999.72
2023-01-20T08:33:43.326Z,101010.38
2023-01-20T08:36:14.769Z,101009.53
2023-01-20T08:38:43.461Z,101007.38
2023-01-20T08:41:14.917Z,101017.03
2023-01-20T08:43:44.706Z,101019.63
2023-01-20T08:46:14.439Z,101020.59
2023-01-20T08:48:43.770Z,101024.16
2023-01-20T08:51:15.885Z,101030.97
2023-01-20T08:53:44.426Z,101032.84
2023-01-20T08:56:13.607Z,101023.44
2023-01-20T08:58:42.092Z,101047.31
2023-01-20T09:01:11.765Z,101052.88
2023-01-20T09:03:42.050Z,101053.84
2023-01-20T09:06:15.557Z,101030.13
2023-01-20T09:08:43.593Z,101055.84
2023-01-20T09:11:14.367Z,101057.00
2023-01-20T09:13:42.592Z,101061.09
2023-01-20T09:16:13.003Z,101061.97
2023-01-20T09:18:41.403Z,101070.34
2023-01-20T09:21:10.044Z,101073.19
2023-01-20T09:23:42.914Z,101079.56
2023-01-20T09:26:12.384Z,101085.50
2023-01-20T09:28:42.276Z,101090.22
2023-01-20T09:31:11.526Z,101095.50
2023-01-20T09:33:41.708Z,101103.59
2023-01-20T09:36:11.770Z,101111.69
2023-01-20T09:38:58.706Z,101110.13
2023-01-20T09:41:47.120Z,101109.25
2023-01-20T09:44:41.076Z,101062.69
2023-01-20T09:47:23.290Z,101110.13
2023-01-20T09:50:21.989Z,101113.78
2023-01-20T09:53:05.344Z,101121.03
2023-01-20T09:55:41.920Z,101123.63
2023-01-20T09:58:22.003Z,101123.63
2023-01-20T10:00:54.919Z,101128.16
2023-01-20T10:03:29.462Z,101130.16
2023-01-20T10:06:02.476Z,101130.53
2023-01-20T10:08:38.491Z,101142.91
2023-01-20T10:11:13.778Z,101142.91
2023-01-20T10:13:51.464Z,101144.03
2023-01-20T10:16:29.987Z,101154.44
2023-01-20T10:19:03.167Z,101157.16
2023-01-20T10:21:37.325Z,101161.06
2023-01-20T10:24:11.369Z,101158.22
2023-01-20T10:26:46.739Z,101163.25
2023-01-20T10:29:21.345Z,101156.25
2023-01-20T10:31:59.453Z,101156.97
2023-01-20T10:34:33.108Z,101160.25
2023-01-20T10:37:07.892Z,101163.41
2023-01-20T10:39:53.109Z,101167.41
2023-01-20T10:42:24.229Z,101168.84
2023-01-20T10:44:53.644Z,101172.84
2023-01-20T10:47:26.797Z,101178.69
2023-01-20T10:50:29.031Z,101182.00
2023-01-20T10:53:22.558Z,101184.47
2023-01-20T10:56:00.195Z,101185.16
2023-01-20T10:58:32.847Z,101187.00
2023-01-20T11:01:04.482Z,101193.38
2023-01-20T11:03:36.845Z,101194.13
2023-01-20T11:06:07.230Z,101191.44
2023-01-20T11:08:35.253Z,101203.78
2023-01-20T11:11:13.819Z,101206.94
2023-01-20T11:13:43.245Z,101211.22
2023-01-20T11:16:17.378Z,101210.34
2023-01-20T11:18:57.775Z,101217.66
2023-01-20T11:21:27.680Z,101213.16
2023-01-20T11:23:57.730Z,101222.13
2023-01-20T11:26:28.556Z,101215.78
2023-01-20T11:28:59.741Z,101215.19
2023-01-20T11:31:41.012Z,101215.78
2023-01-20T11:34:23.560Z,101224.03
2023-01-20T11:36:52.529Z,101230.59
2023-01-20T11:39:28.327Z,101231.41
2023-01-20T11:42:13.154Z,101212.91
2023-01-20T11:44:46.397Z,101240.53
2023-01-20T11:47:23.927Z,101236.81
2023-01-20T11:50:28.266Z,101246.19
2023-01-20T11:53:13.722Z,101249.59
2023-01-20T11:56:00.884Z,101255.72
2023-01-20T11:58:30.461Z,101253.16
2023-01-20T12:01:05.959Z,101261.28
2023-01-20T12:04:00.758Z,101253.97
2023-01-20T12:06:31.043Z,101267.78
2023-01-20T12:09:03.845Z,101266.59
2023-01-20T12:11:36.888Z,101273.44
2023-01-20T12:14:23.239Z,101277.13
2023-01-20T12:17:01.542Z,101275.69
2023-01-20T12:19:38.437Z,101285.03
2023-01-20T12:22:14.560Z,101289.00
2023-01-20T12:25:11.646Z,101285.88
2023-01-20T12:27:46.168Z,101299.47
2023-01-20T12:30:35.977Z,101312.00
2023-01-20T12:33:05.666Z,101304.88
2023-01-20T12:35:42.334Z,101303.19
2023-01-20T12:38:16.496Z,101315.81
2023-01-20T12:40:49.980Z,101313.13
2023-01-20T12:43:32.640Z,101319.50
2023-01-20T12:46:24.077Z,101322.44
2023-01-20T12:49:03.550Z,101324.19
2023-01-20T12:51:43.955Z,101326.63
2023-01-20T12:54:48.244Z,101337.88
2023-01-20T12:57:29.617Z,101345.56
2023-01-20T13:00:12.285Z,101342.50
2023-01-20T13:03:13.734Z,101350.69
2023-01-20T13:06:04.419Z,101352.00
2023-01-20T13:08:43.073Z,101353.44
2023-01-20T13:11:22.104Z,101358.47
2023-01-20T13:14:03.312Z,101350.19
2023-01-20T13:16:38.054Z,101370.28
2023-01-20T13:19:13.529Z,101379.84
2023-01-20T13:21:42.898Z,101375.69
2023-01-20T13:24:19.120Z,101380.91
2023-01-20T13:26:48.210Z,101390.53
2023-01-20T13:29:43.000Z,101387.53
2023-01-20T13:32:32.112Z,101393.31
2023-01-20T13:35:01.936Z,101396.28
2023-01-20T13:37:36.455Z,101405.38
2023-01-20T13:40:06.849Z,101404.66
2023-01-20T13:42:51.446Z,101407.09
2023-01-20T13:45:25.766Z,101416.88
2023-01-20T13:47:58.593Z,101417.50
2023-01-20T13:50:30.533Z,101423.16
2023-01-20T13:53:27.880Z,101426.00
2023-01-20T13:56:26.509Z,101426.50
2023-01-20T13:58:55.283Z,101441.13
2023-01-20T14:01:23.295Z,101442.94
2023-01-20T14:04:04.041Z,101444.78
2023-01-20T14:06:33.231Z,101440.66
2023-01-20T14:09:03.637Z,101446.38
2023-01-20T14:11:32.294Z,101451.97
2023-01-20T14:14:02.527Z,101459.56
2023-01-20T14:16:37.778Z,101464.16
2023-01-20T14:19:20.418Z,101461.66
2023-01-20T14:21:54.083Z,101459.31
2023-01-20T14:24:29.504Z,101466.28
2023-01-20T14:27:07.838Z,101470.13
2023-01-20T14:29:35.863Z,101480.72
2023-01-20T14:32:17.467Z,101490.66
2023-01-20T14:34:45.463Z,101498.16
2023-01-20T14:37:26.262Z,101500.09
2023-01-20T14:39:58.771Z,101504.22
2023-01-20T14:42:29.698Z,101512.94
2023-01-20T14:44:58.625Z,101515.19
2023-01-20T14:47:27.859Z,101526.44
2023-01-20T14:49:56.790Z,101523.03
2023-01-20T14:52:28.779Z,101536.78
2023-01-20T14:54:59.017Z,101541.16
2023-01-20T14:57:30.230Z,101536.38
2023-01-20T15:00:19.006Z,101539.50
2023-01-20T15:03:01.335Z,101545.28
2023-01-20T15:05:40.292Z,101542.38
2023-01-20T15:08:24.346Z,101558.97
2023-01-20T15:11:21.867Z,101565.75
2023-01-20T15:14:10.650Z,101572.50
2023-01-20T15:16:50.790Z,101578.53
2023-01-20T15:19:35.637Z,101580.16
2023-01-20T15:22:22.273Z,101577.84
2023-01-20T15:24:51.199Z,101577.47
2023-01-20T15:27:38.376Z,101593.16
2023-01-20T15:30:20.063Z,101593.03
2023-01-20T15:32:49.517Z,101612.03
2023-01-20T15:35:22.789Z,101618.69
2023-01-20T15:37:51.517Z,101614.78
2023-01-20T15:40:21.353Z,101620.16
2023-01-20T15:42:51.438Z,101625.66
2023-01-20T15:45:19.720Z,101633.03
2023-01-20T15:47:48.151Z,101636.81
2023-01-20T15:50:18.672Z,101644.06
2023-01-20T15:52:46.912Z,101653.38
2023-01-20T15:55:16.018Z,101657.78
2023-01-20T15:57:44.853Z,101667.25
2023-01-20T16:00:20.119Z,101669.06
2023-01-20T16:02:48.300Z,101676.78
2023-01-20T16:05:17.752Z,101683.41
2023-01-20T16:07:47.737Z,101682.03
2023-01-20T16:10:18.192Z,101675.50
2023-01-20T16:12:46.954Z,101690.34
2023-01-20T16:15:16.417Z,101698.44
2023-01-20T16:17:45.998Z,101697.94
2023-01-20T16:20:19.457Z,101699.97
2023-01-20T16:22:47.511Z,101716.63
2023-01-20T16:25:15.720Z,101711.47
2023-01-20T16:27:43.997Z,101721.75
2023-01-20T16:30:16.149Z,101725.63
2023-01-20T16:32:46.422Z,101729.44
2023-01-20T16:35:15.240Z,101734.09
2023-01-20T16:37:45.476Z,101742.28
2023-01-20T16:40:15.175Z,101715.50
2023-01-20T16:42:44.123Z,101749.50
2023-01-20T16:45:24.026Z,101751.84
2023-01-20T16:47:53.545Z,101756.88
2023-01-20T16:50:22.261Z,101761.09
2023-01-20T16:52:50.290Z,101759.00
2023-01-20T16:55:18.775Z,101772.25
2023-01-20T16:57:46.820Z,101775.19
2023-01-20T17:00:18.634Z,101784.34
2023-01-20T17:02:50.602Z,101759.88
2023-01-20T17:05:22.685Z,101791.84
2023-01-20T17:07:51.361Z,101793.16
2023-01-20T17:10:20.157Z,101801.22
2023-01-20T17:12:49.076Z,101802.69
2023-01-20T17:15:17.218Z,101802.03
2023-01-20T17:17:49.256Z,101806.47
2023-01-20T17:20:19.333Z,101816.69
2023-01-20T17:22:47.854Z,101828.69
2023-01-20T17:25:17.918Z,101829.63
2023-01-20T17:27:46.323Z,101832.59
2023-01-20T17:30:15.720Z,101837.97
2023-01-20T17:32:47.251Z,101840.66
2023-01-20T17:35:15.599Z,101843.38
2023-01-20T17:37:44.933Z,101850.44
2023-01-20T17:40:13.864Z,101856.84
2023-01-20T17:42:43.622Z,101860.63
2023-01-20T17:45:12.767Z,101859.22
2023-01-20T17:47:40.846Z,101867.53
2023-01-20T17:50:09.828Z,101872.03
2023-01-20T17:52:37.921Z,101881.72
2023-01-20T17:55:08.463Z,101885.28
2023-01-20T17:57:36.431Z,101894.47
2023-01-20T18:00:06.236Z,101888.94
2023-01-20T18:02:34.878Z,101890.78
2023-01-20T18:05:03.111Z,101901.25
2023-01-20T18:07:31.108Z,101903.16
2023-01-20T18:09:59.114Z,101913.63
2023-01-20T18:12:28.408Z,101914.91
2023-01-20T18:14:57.740Z,101922.13
2023-01-20T18:17:25.692Z,101866.00
2023-01-20T18:19:53.753Z,101928.91
2023-01-20T18:22:21.686Z,101932.91
2023-01-20T18:24:49.721Z,101941.31
2023-01-20T18:27:18.790Z,101945.09
2023-01-20T18:29:50.862Z,101953.06
2023-01-20T18:32:18.765Z,101954.13
2023-01-20T18:34:46.657Z,101956.28
2023-01-20T18:37:14.697Z,101962.75
2023-01-20T18:39:43.928Z,101962.56
2023-01-20T18:42:12.156Z,101971.91
2023-01-20T18:44:40.062Z,101981.94
2023-01-20T18:47:09.491Z,101978.09
2023-01-20T18:49:37.506Z,101990.03
2023-01-20T18:52:06.332Z,101985.84
2023-01-20T18:54:37.155Z,101992.41
2023-01-20T18:57:06.790Z,101995.63
2023-01-20T18:59:36.708Z,102004.38
2023-01-20T19:02:04.669Z,102006.72
2023-01-20T19:04:35.677Z,102019.88
2023-01-20T19:07:03.764Z,102013.66
2023-01-20T19:09:31.732Z,102023.34
2023-01-20T19:11:59.770Z,102023.34
2023-01-20T19:14:27.841Z,102027.88
2023-01-20T19:16:55.989Z,102023.22
2023-01-20T19:19:24.104Z,102030.34
2023-01-20T19:21:53.515Z,102036.38
2023-01-20T19:24:22.853Z,102037.22
2023-01-20T19:26:50.917Z,102041.00
2023-01-20T19:29:19.756Z,102046.41
2023-01-20T19:31:49.093Z,102044.91
2023-01-20T19:34:17.241Z,102055.16
2023-01-20T19:36:45.334Z,102066.34
2023-01-20T19:39:15.522Z,102073.75
2023-01-20T19:41:43.801Z,102073.75
2023-01-20T19:44:13.589Z,102085.09
2023-01-20T19:46:41.780Z,102083.72
2023-01-20T19:49:11.558Z,102085.63
2023-01-20T19:51:39.618Z,102093.81
2023-01-20T19:54:07.934Z,102096.72
2023-01-20T19:56:37.528Z,102102.78
2023-01-20T19:59:06.982Z,102105.69
2023-01-20T20:01:37.019Z,102122.59
2023-01-20T20:04:07.358Z,102117.97
2023-01-20T20:06:36.798Z,102122.28
2023-01-20T20:09:07.141Z,102133.72
2023-01-20T20:11:35.473Z,102128.84
2023-01-20T20:14:07.283Z,102135.66
2023-01-20T20:16:37.045Z,102144.69
2023-01-20T20:19:05.944Z,102150.22
2023-01-20T20:21:35.026Z,102155.47
2023-01-20T20:24:05.214Z,102166.16
2023-01-20T20:26:35.053Z,102168.88
2023-01-20T20:29:06.347Z,102168.75
2023-01-20T20:31:36.174Z,102174.13
2023-01-20T20:34:05.962Z,102177.91
2023-01-20T20:36:34.268Z,102186.66
2023-01-20T20:39:03.544Z,102192.06
2023-01-20T20:41:33.311Z,102201.84
2023-01-20T20:44:02.730Z,102213.69
2023-01-20T20:46:32.471Z,102202.00
2023-01-20T20:49:02.126Z,102208.81
2023-01-20T20:51:31.866Z,102224.91
2023-01-20T20:54:01.438Z,102222.09
2023-01-20T20:56:31.712Z,102234.81
2023-01-20T20:59:03.079Z,102243.84
2023-01-20T21:01:34.861Z,102249.91
2023-01-20T21:04:03.652Z,102251.94
2023-01-20T21:06:32.626Z,102255.50
2023-01-20T21:09:01.074Z,102252.06
2023-01-20T21:11:29.867Z,102260.22
2023-01-20T21:13:57.977Z,102261.97
2023-01-20T21:16:27.737Z,102267.34
2023-01-20T21:18:59.337Z,102276.09
2023-01-20T21:21:29.048Z,102282.34
2023-01-20T21:23:59.003Z,102285.25
2023-01-20T21:26:30.409Z,102295.25
2023-01-20T21:29:01.679Z,102273.75
2023-01-20T21:31:31.017Z,102291.03
2023-01-20T21:34:01.047Z,102292.97
2023-01-20T21:36:30.237Z,102299.22
2023-01-20T21:38:59.501Z,102310.84
2023-01-20T21:41:27.482Z,102318.06
2023-01-20T21:44:12.758Z,102326.94
2023-01-20T21:46:41.391Z,102321.25
2023-01-20T21:49:28.500Z,102325.69
2023-01-20T21:52:14.913Z,102320.41
2023-01-20T21:54:45.185Z,102344.88
2023-01-20T21:57:13.884Z,102349.94
2023-01-20T21:59:41.893Z,102360.63
2023-01-20T22:02:12.227Z,102358.03
2023-01-20T22:04:41.651Z,102369.56
2023-01-20T22:07:10.357Z,102369.69
2023-01-20T22:09:38.507Z,102371.63
2023-01-20T22:12:07.121Z,102380.47
2023-01-20T22:14:35.074Z,102382.28
2023-01-20T22:17:03.267Z,102389.31
2023-01-20T22:19:31.664Z,102394.56
2023-01-20T22:22:01.795Z,102393.63
2023-01-20T22:24:29.970Z,102401.91
2023-01-20T22:26:58.585Z,102412.97
2023-01-20T22:29:26.872Z,102415.97
2023-01-20T22:31:56.088Z,102425.19
2023-01-20T22:34:24.287Z,102425.56
2023-01-20T22:36:52.315Z,102433.91
2023-01-20T22:39:21.744Z,102437.75
2023-01-20T22:41:49.823Z,102440.66
2023-01-20T22:44:17.787Z,102441.59
2023-01-20T22:46:45.780Z,102447.09
2023-01-20T22:49:14.015Z,102442.94
2023-01-20T22:51:42.097Z,102448.13
2023-01-20T22:54:11.732Z,102448.13
2023-01-20T22:56:41.127Z,102454.28
2023-01-20T22:59:09.042Z,102462.38
2023-01-20T23:01:37.350Z,102459.59
2023-01-20T23:04:07.059Z,102464.88
2023-01-20T23:06:37.705Z,102473.06
2023-01-20T23:09:08.125Z,102482.09
2023-01-20T23:11:38.363Z,102490.06
2023-01-20T23:14:10.502Z,102498.16
2023-01-20T23:16:38.895Z,102506.31
2023-01-20T23:19:06.924Z,102505.38
2023-01-20T23:21:35.440Z,102515.28
2023-01-20T23:24:03.498Z,102520.66
2023-01-20T23:26:32.653Z,102519.78
2023-01-20T23:29:00.901Z,102514.50
2023-01-20T23:31:33.298Z,102514.59
2023-01-20T23:34:01.348Z,102527.28
2023-01-20T23:36:29.368Z,102531.50
2023-01-20T23:38:57.891Z,102533.16
2023-01-20T23:41:26.519Z,102526.06
2023-01-20T23:43:54.433Z,102529.88
2023-01-20T23:46:22.593Z,102534.41
2023-01-20T23:48:51.936Z,102536.31
2023-01-20T23:51:20.019Z,102542.66
2023-01-20T23:53:48.083Z,102538.22
2023-01-20T23:56:17.977Z,102543.63
2023-01-20T23:58:46.222Z,102546.31
